Time;durP1;ratioP1;P1;durP2;ratioP2;P2;SDS_P1;SDS_P2;PMS_P1;PMS_P2;Temp;Humidity;BMP_temperature;BMP_pressure;BME280_temperature;BME280_humidity;BME280_pressure;Samples;Min_cycle;Max_cycle;Signal;HPM_P1;HPM_P2
2023/01/02 00:00:55;;;;;;;1.88;1.77;;;;;;;;;;5056873;28;20021;-32
2023/01/02 00:03:21;;;;;;;1.48;1.38;;;;;;;;;;5058238;28;20087;-32
2023/01/02 00:05:47;;;;;;;1.35;1.17;;;;;;;;;;5057578;28;20096;-31
2023/01/02 00:08:13;;;;;;;1.35;1.10;;;;;;;;;;5057724;28;20075;-31
2023/01/02 00:10:39;;;;;;;1.20;1.10;;;;;;;;;;5057910;28;20333;-30
2023/01/02 00:13:05;;;;;;;1.48;1.38;;;;;;;;;;5056552;28;20380;-31
2023/01/02 00:15:32;;;;;;;1.10;1.00;;;;;;;;;;5058321;28;20112;-31
2023/01/02 00:17:58;;;;;;;1.60;1.33;;;;;;;;;;5057947;28;20436;-33
2023/01/02 00:20:24;;;;;;;1.55;1.25;;;;;;;;;;5057440;28;20468;-33
2023/01/02 00:22:50;;;;;;;1.30;1.20;;;;;;;;;;5057354;28;20111;-34
2023/01/02 00:25:16;;;;;;;1.75;1.55;;;;;;;;;;5057305;28;20094;-37
2023/01/02 00:27:42;;;;;;;1.30;1.20;;;;;;;;;;5057299;28;20036;-31
2023/01/02 00:30:09;;;;;;;1.88;1.30;;;;;;;;;;5057229;28;20029;-32
2023/01/02 00:32:35;;;;;;;1.23;1.10;;;;;;;;;;5057445;28;20100;-32
2023/01/02 00:35:01;;;;;;;3.58;2.20;;;;;;;;;;5057435;28;20066;-32
2023/01/02 00:37:27;;;;;;;1.65;1.48;;;;;;;;;;5057319;28;20029;-35
2023/01/02 00:39:53;;;;;;;1.25;1.15;;;;;;;;;;5057130;28;20448;-31
2023/01/02 00:42:19;;;;;;;1.40;1.30;;;;;;;;;;5056989;28;20052;-32
2023/01/02 00:44:45;;;;;;;1.65;1.25;;;;;;;;;;5057535;28;20029;-31
2023/01/02 00:47:12;;;;;;;1.58;1.48;;;;;;;;;;5057216;28;20033;-31
2023/01/02 00:49:38;;;;;;;2.65;1.45;;;;;;;;;;5056865;28;20017;-32
2023/01/02 00:52:04;;;;;;;1.30;1.20;;;;;;;;;;5057075;28;20031;-33
2023/01/02 00:54:30;;;;;;;1.95;1.85;;;;;;;;;;5056844;28;20127;-32
2023/01/02 00:56:56;;;;;;;1.58;1.23;;;;;;;;;;5056674;28;20025;-31
2023/01/02 00:59:22;;;;;;;1.60;1.50;;;;;;;;;;5056982;28;20405;-31
2023/01/02 01:01:49;;;;;;;1.55;1.45;;;;;;;;;;5056388;28;20108;-32
2023/01/02 01:04:15;;;;;;;1.42;1.33;;;;;;;;;;5056295;28;20049;-31
2023/01/02 01:06:41;;;;;;;1.98;1.30;;;;;;;;;;5056837;28;20025;-34
2023/01/02 01:09:07;;;;;;;1.27;1.17;;;;;;;;;;5056525;28;20101;-33
2023/01/02 01:11:33;;;;;;;3.50;1.30;;;;;;;;;;5056494;28;20036;-32
2023/01/02 01:13:59;;;;;;;2.25;1.17;;;;;;;;;;5056397;28;20025;-32
2023/01/02 01:16:25;;;;;;;1.35;1.25;;;;;;;;;;5056411;28;20043;-32
2023/01/02 01:18:55;;;;;;;1.40;1.30;;;;;;;;;;5056273;28;20024;-32
2023/01/02 01:21:21;;;;;;;1.50;1.33;;;;;;;;;;5056306;28;20096;-31
2023/01/02 01:23:51;;;;;;;2.08;1.58;;;;;;;;;;5056363;28;20108;-32
2023/01/02 01:26:18;;;;;;;2.25;2.05;;;;;;;;;;5056504;28;20105;-32
2023/01/02 01:28:44;;;;;;;1.80;1.50;;;;;;;;;;5056465;28;20021;-31
2023/01/02 01:31:12;;;;;;;1.40;1.30;;;;;;;;;;5056105;28;20112;-31
2023/01/02 01:33:38;;;;;;;1.50;1.40;;;;;;;;;;5056026;28;20025;-34
2023/01/02 01:36:06;;;;;;;4.38;1.60;;;;;;;;;;5056330;28;20040;-31
2023/01/02 01:38:33;;;;;;;1.67;1.20;;;;;;;;;;5056448;28;20036;-33
2023/01/02 01:40:59;;;;;;;2.10;1.60;;;;;;;;;;5056514;28;20029;-31
2023/01/02 01:43:35;;;;;;;1.52;1.23;;;;;;;;;;5055885;28;20349;-33
2023/01/02 01:46:01;;;;;;;2.70;1.60;;;;;;;;;;5055939;28;20029;-31
2023/01/02 01:48:27;;;;;;;1.80;1.20;;;;;;;;;;5055784;28;20052;-33
2023/01/02 01:50:53;;;;;;;1.50;1.40;;;;;;;;;;5055766;28;20032;-33
2023/01/02 01:53:21;;;;;;;1.20;1.10;;;;;;;;;;5055828;28;20418;-34
2023/01/02 01:55:47;;;;;;;1.60;1.25;;;;;;;;;;5055671;28;20087;-35
2023/01/02 01:58:16;;;;;;;2.28;1.50;;;;;;;;;;5055548;28;20462;-31
2023/01/02 02:00:43;;;;;;;1.48;1.20;;;;;;;;;;5055556;28;20029;-31
2023/01/02 02:03:14;;;;;;;2.78;1.63;;;;;;;;;;5055708;28;20049;-31
2023/01/02 02:05:40;;;;;;;1.50;1.33;;;;;;;;;;5055354;28;20091;-32
2023/01/02 02:08:36;;;;;;;2.22;1.63;;;;;;;;;;5055480;28;20025;-32
2023/01/02 02:11:02;;;;;;;1.88;1.60;;;;;;;;;;5042482;28;20041;-32
2023/01/02 02:13:32;;;;;;;1.90;1.60;;;;;;;;;;5055502;28;20333;-33
2023/01/02 02:16:21;;;;;;;1.90;1.40;;;;;;;;;;5054823;28;20555;-32
2023/01/02 02:18:50;;;;;;;1.27;1.17;;;;;;;;;;5027549;28;20467;-33
2023/01/02 02:21:25;;;;;;;1.50;1.40;;;;;;;;;;5055458;28;20064;-31
2023/01/02 02:24:07;;;;;;;2.17;1.63;;;;;;;;;;5055042;28;20530;-33
2023/01/02 02:27:02;;;;;;;1.45;1.35;;;;;;;;;;5055372;28;20102;-32
2023/01/02 02:29:47;;;;;;;2.33;1.35;;;;;;;;;;5001914;28;20066;-31
2023/01/02 02:32:25;;;;;;;2.85;1.45;;;;;;;;;;5054959;28;20033;-31
2023/01/02 02:35:10;;;;;;;1.38;1.27;;;;;;;;;;5054903;28;20029;-31
2023/01/02 02:37:59;;;;;;;1.65;1.20;;;;;;;;;;5054803;28;20029;-31
2023/01/02 02:40:34;;;;;;;2.45;1.50;;;;;;;;;;5047151;28;20098;-32
2023/01/02 02:43:01;;;;;;;1.30;1.20;;;;;;;;;;5054795;28;20095;-33
2023/01/02 02:45:39;;;;;;;1.45;1.33;;;;;;;;;;5055057;28;20055;-32
2023/01/02 02:48:10;;;;;;;1.40;1.30;;;;;;;;;;5055069;28;20090;-33
2023/01/02 02:50:42;;;;;;;1.45;1.20;;;;;;;;;;5054706;28;20029;-32
2023/01/02 02:53:08;;;;;;;3.85;1.60;;;;;;;;;;5054639;28;20055;-32
2023/01/02 02:55:54;;;;;;;1.40;1.30;;;;;;;;;;5054680;28;20356;-31
2023/01/02 02:58:21;;;;;;;2.60;1.48;;;;;;;;;;5054809;28;20041;-33
2023/01/02 03:00:47;;;;;;;2.03;1.27;;;;;;;;;;5054857;28;20150;-33
2023/01/02 03:03:17;;;;;;;1.65;1.30;;;;;;;;;;5054526;28;20403;-32
2023/01/02 03:05:46;;;;;;;1.52;1.30;;;;;;;;;;5054419;28;20037;-32
2023/01/02 03:08:12;;;;;;;1.40;1.30;;;;;;;;;;5054788;28;20036;-32
2023/01/02 03:10:58;;;;;;;2.30;1.70;;;;;;;;;;5054766;28;20123;-31
2023/01/02 03:13:43;;;;;;;2.05;1.38;;;;;;;;;;5054641;28;20412;-31
2023/01/02 03:16:28;;;;;;;2.28;1.38;;;;;;;;;;5054484;28;20106;-32
2023/01/02 03:18:57;;;;;;;4.78;1.50;;;;;;;;;;5054650;28;20512;-32
2023/01/02 03:21:29;;;;;;;1.90;1.50;;;;;;;;;;5054926;28;20033;-32
2023/01/02 03:23:58;;;;;;;1.70;1.30;;;;;;;;;;5054809;28;20260;-31
2023/01/02 03:26:26;;;;;;;1.77;1.48;;;;;;;;;;5054641;28;20029;-32
2023/01/02 03:28:54;;;;;;;2.67;2.13;;;;;;;;;;5056908;28;20498;-32
2023/01/02 03:31:21;;;;;;;1.67;1.50;;;;;;;;;;5058367;28;20124;-32
2023/01/02 03:34:00;;;;;;;1.83;1.30;;;;;;;;;;5058552;28;20104;-31
2023/01/02 03:36:28;;;;;;;1.63;1.52;;;;;;;;;;5058899;28;20083;-34
2023/01/02 03:39:14;;;;;;;2.70;1.42;;;;;;;;;;5058434;28;20036;-31
2023/01/02 03:41:46;;;;;;;4.50;1.77;;;;;;;;;;5058187;28;20022;-32
2023/01/02 03:44:14;;;;;;;1.73;1.45;;;;;;;;;;5058377;28;20024;-31
2023/01/02 03:46:40;;;;;;;2.70;1.73;;;;;;;;;;5058127;28;20100;-31
2023/01/02 03:49:11;;;;;;;2.08;1.25;;;;;;;;;;5058000;28;20078;-31
2023/01/02 03:51:37;;;;;;;2.47;1.70;;;;;;;;;;5058328;28;20029;-32
2023/01/02 03:54:04;;;;;;;2.75;1.40;;;;;;;;;;5057904;28;20029;-31
2023/01/02 03:56:41;;;;;;;1.40;1.30;;;;;;;;;;5058478;28;20100;-32
2023/01/02 03:59:19;;;;;;;2.00;1.80;;;;;;;;;;5058386;28;20025;-32
2023/01/02 04:01:45;;;;;;;2.92;2.05;;;;;;;;;;5057847;28;20037;-32
2023/01/02 04:04:17;;;;;;;1.38;1.27;;;;;;;;;;5057487;28;20080;-32
2023/01/02 04:06:45;;;;;;;1.75;1.55;;;;;;;;;;5058327;28;20021;-31
2023/01/02 04:09:15;;;;;;;2.50;1.40;;;;;;;;;;5057720;28;20040;-31
2023/01/02 04:11:44;;;;;;;4.47;1.48;;;;;;;;;;5058195;28;20038;-31
2023/01/02 04:14:15;;;;;;;2.55;2.15;;;;;;;;;;5057575;28;20028;-31
2023/01/02 04:16:42;;;;;;;2.03;1.92;;;;;;;;;;5057575;28;20037;-31
2023/01/02 04:19:12;;;;;;;2.47;1.35;;;;;;;;;;5056483;28;20086;-32
2023/01/02 04:21:39;;;;;;;1.95;1.30;;;;;;;;;;5057402;28;20035;-32
2023/01/02 04:24:16;;;;;;;2.05;1.52;;;;;;;;;;5056690;28;20029;-30
2023/01/02 04:26:51;;;;;;;1.33;1.23;;;;;;;;;;5057360;28;20033;-32
2023/01/02 04:29:17;;;;;;;1.95;1.80;;;;;;;;;;5057627;28;20347;-31
2023/01/02 04:31:47;;;;;;;1.73;1.63;;;;;;;;;;5057207;28;20025;-31
2023/01/02 04:34:14;;;;;;;3.80;1.60;;;;;;;;;;5057091;28;20100;-31
2023/01/02 04:36:41;;;;;;;1.63;1.52;;;;;;;;;;5057727;28;20033;-32
2023/01/02 04:39:07;;;;;;;2.45;1.42;;;;;;;;;;5056550;28;20463;-31
2023/01/02 04:41:34;;;;;;;4.40;1.20;;;;;;;;;;5057634;28;20033;-32
2023/01/02 04:44:00;;;;;;;2.03;1.48;;;;;;;;;;5055981;28;20495;-32
2023/01/02 04:46:27;;;;;;;6.25;1.45;;;;;;;;;;5056998;28;20505;-31
2023/01/02 04:48:54;;;;;;;2.35;1.83;;;;;;;;;;5056902;28;20452;-32
2023/01/02 04:51:20;;;;;;;1.77;1.67;;;;;;;;;;5057090;28;20041;-32
2023/01/02 04:53:47;;;;;;;2.05;1.67;;;;;;;;;;5055526;28;20372;-30
2023/01/02 04:56:13;;;;;;;3.58;1.92;;;;;;;;;;5057075;28;20029;-32
2023/01/02 04:58:40;;;;;;;3.00;1.58;;;;;;;;;;5056911;28;20029;-32
2023/01/02 05:01:10;;;;;;;2.65;1.90;;;;;;;;;;5056939;28;20048;-31
2023/01/02 05:03:43;;;;;;;1.98;1.52;;;;;;;;;;5056615;28;20128;-32
2023/01/02 05:06:09;;;;;;;4.13;1.98;;;;;;;;;;5057374;28;20029;-31
2023/01/02 05:08:35;;;;;;;1.67;1.58;;;;;;;;;;5057294;28;20465;-31
2023/01/02 05:11:08;;;;;;;4.00;1.83;;;;;;;;;;5056722;28;20107;-30
2023/01/02 05:13:35;;;;;;;2.72;2.03;;;;;;;;;;5056505;28;20025;-33
2023/01/02 05:16:02;;;;;;;1.80;1.45;;;;;;;;;;5056344;28;20047;-31
2023/01/02 05:18:28;;;;;;;4.20;2.40;;;;;;;;;;5056255;28;20123;-31
2023/01/02 05:21:00;;;;;;;4.35;1.40;;;;;;;;;;5056599;28;20029;-31
2023/01/02 05:26:11;;;;;;;2.13;1.50;;;;;;;;;;5056217;28;20121;-31
2023/01/02 05:28:37;;;;;;;5.55;1.90;;;;;;;;;;5056630;28;20390;-32
2023/01/02 05:31:03;;;;;;;9.15;1.95;;;;;;;;;;5056061;28;20091;-32
2023/01/02 05:33:29;;;;;;;2.00;1.75;;;;;;;;;;5056133;28;20053;-30
2023/01/02 05:35:55;;;;;;;5.53;1.70;;;;;;;;;;5056379;28;20050;-30
2023/01/02 05:38:22;;;;;;;6.25;2.25;;;;;;;;;;5055789;28;20360;-30
2023/01/02 05:40:48;;;;;;;3.72;1.73;;;;;;;;;;5055816;28;20033;-31
2023/01/02 05:43:14;;;;;;;2.72;1.40;;;;;;;;;;5055677;28;20025;-31
2023/01/02 05:45:40;;;;;;;2.80;1.60;;;;;;;;;;5055950;28;20356;-32
2023/01/02 05:48:06;;;;;;;1.70;1.60;;;;;;;;;;5056395;28;20043;-31
2023/01/02 05:50:32;;;;;;;3.58;1.88;;;;;;;;;;5054885;28;20104;-32
2023/01/02 05:52:58;;;;;;;6.93;1.63;;;;;;;;;;5055939;28;20036;-31
2023/01/02 05:55:25;;;;;;;5.65;2.20;;;;;;;;;;5055491;28;20120;-32
2023/01/02 05:57:54;;;;;;;1.63;1.52;;;;;;;;;;5055658;28;20036;-32
2023/01/02 06:03:16;;;;;;;4.40;2.03;;;;;;;;;;5418790;22;20061;-27
2023/01/02 06:05:42;;;;;;;1.92;1.52;;;;;;;;;;5035272;28;20029;-28
2023/01/02 06:08:08;;;;;;;1.95;1.63;;;;;;;;;;5035272;28;20025;-28
2023/01/02 06:10:35;;;;;;;8.20;2.38;;;;;;;;;;5034886;28;20440;-27
2023/01/02 06:13:01;;;;;;;5.75;2.85;;;;;;;;;;5035053;28;20444;-28
2023/01/02 06:15:27;;;;;;;5.85;2.40;;;;;;;;;;5034949;28;20063;-29
2023/01/02 06:17:53;;;;;;;5.82;1.90;;;;;;;;;;5035187;28;20021;-27
2023/01/02 06:20:19;;;;;;;1.80;1.70;;;;;;;;;;5035601;28;20029;-28
2023/01/02 06:22:45;;;;;;;6.93;2.20;;;;;;;;;;5034809;28;20155;-28
2023/01/02 06:25:11;;;;;;;2.10;1.63;;;;;;;;;;5034931;28;20067;-28
2023/01/02 06:27:38;;;;;;;5.38;2.08;;;;;;;;;;5034778;28;20056;-28
2023/01/02 06:30:04;;;;;;;7.63;1.90;;;;;;;;;;5034945;28;20056;-28
2023/01/02 06:32:30;;;;;;;9.48;3.58;;;;;;;;;;5034897;28;20033;-28
2023/01/02 06:34:56;;;;;;;6.90;2.42;;;;;;;;;;5034853;28;20083;-28
2023/01/02 06:37:23;;;;;;;9.05;2.28;;;;;;;;;;5034877;28;20092;-27
2023/01/02 06:39:49;;;;;;;7.82;2.10;;;;;;;;;;5034723;28;20104;-28
2023/01/02 06:42:15;;;;;;;3.05;2.13;;;;;;;;;;5034494;28;20029;-28
2023/01/02 06:44:41;;;;;;;7.30;1.45;;;;;;;;;;5034660;28;20040;-28
2023/01/02 06:47:07;;;;;;;7.05;2.00;;;;;;;;;;5035003;28;20403;-28
2023/01/02 06:49:33;;;;;;;4.00;1.85;;;;;;;;;;5034518;28;20100;-29
2023/01/02 06:52:00;;;;;;;12.35;2.20;;;;;;;;;;5034475;28;20079;-28
2023/01/02 06:54:26;;;;;;;25.33;2.95;;;;;;;;;;5034440;28;20041;-29
2023/01/02 06:56:52;;;;;;;10.20;2.42;;;;;;;;;;5034369;28;20475;-29
2023/01/02 06:59:18;;;;;;;13.85;2.25;;;;;;;;;;5034266;28;20037;-29
2023/01/02 07:01:44;;;;;;;7.82;2.17;;;;;;;;;;5034358;28;20132;-29
2023/01/02 07:04:15;;;;;;;13.10;2.65;;;;;;;;;;5034176;28;20037;-29
2023/01/02 07:06:42;;;;;;;9.35;1.67;;;;;;;;;;5033493;28;20045;-29
2023/01/02 07:09:09;;;;;;;10.35;2.90;;;;;;;;;;5034622;28;20029;-28
2023/01/02 07:11:35;;;;;;;10.63;2.95;;;;;;;;;;5034673;28;20383;-29
2023/01/02 07:14:01;;;;;;;3.13;2.00;;;;;;;;;;5034243;28;20033;-29
2023/01/02 07:16:27;;;;;;;6.13;2.10;;;;;;;;;;5034228;28;20049;-29
2023/01/02 07:18:53;;;;;;;4.53;2.15;;;;;;;;;;5034281;28;20022;-29
2023/01/02 07:21:20;;;;;;;3.35;1.98;;;;;;;;;;5034647;28;20329;-28
2023/01/02 07:23:47;;;;;;;4.93;2.55;;;;;;;;;;5034230;28;20052;-28
2023/01/02 07:26:13;;;;;;;7.68;1.90;;;;;;;;;;5034300;28;20028;-29
2023/01/02 07:28:40;;;;;;;6.68;2.70;;;;;;;;;;5033909;28;20025;-29
2023/01/02 07:31:07;;;;;;;11.52;2.30;;;;;;;;;;5034104;28;20029;-28
2023/01/02 07:33:34;;;;;;;29.67;5.22;;;;;;;;;;5033962;28;20029;-29
2023/01/02 07:36:01;;;;;;;6.95;2.22;;;;;;;;;;5033815;28;20034;-29
2023/01/02 07:38:27;;;;;;;12.00;2.72;;;;;;;;;;5034026;28;20029;-28
2023/01/02 07:40:53;;;;;;;12.68;2.20;;;;;;;;;;5033891;28;20356;-29
2023/01/02 07:43:20;;;;;;;11.27;3.15;;;;;;;;;;5033785;28;20021;-28
2023/01/02 07:45:47;;;;;;;5.05;1.83;;;;;;;;;;5034094;28;20041;-28
2023/01/02 07:48:13;;;;;;;8.52;2.78;;;;;;;;;;5034162;28;20338;-29
2023/01/02 07:50:39;;;;;;;4.40;2.00;;;;;;;;;;5034030;28;20325;-28
2023/01/02 07:53:06;;;;;;;11.07;3.30;;;;;;;;;;5033684;28;20521;-28
2023/01/02 07:55:32;;;;;;;4.63;2.95;;;;;;;;;;5033726;28;20033;-28
2023/01/02 07:57:59;;;;;;;9.52;2.03;;;;;;;;;;5033835;28;20034;-29
2023/01/02 08:00:25;;;;;;;10.10;2.08;;;;;;;;;;5033945;28;20029;-28
2023/01/02 08:02:53;;;;;;;6.40;2.70;;;;;;;;;;5033367;28;20076;-29
2023/01/02 08:05:20;;;;;;;5.80;1.80;;;;;;;;;;5033856;28;20025;-29
2023/01/02 08:07:46;;;;;;;6.80;2.13;;;;;;;;;;5033648;28;20032;-29
2023/01/02 08:10:12;;;;;;;5.85;1.98;;;;;;;;;;5033905;28;20060;-28
2023/01/02 08:12:39;;;;;;;13.27;3.22;;;;;;;;;;5033423;28;20025;-28
2023/01/02 08:15:05;;;;;;;3.97;2.13;;;;;;;;;;5035535;28;20034;-28
2023/01/02 08:17:32;;;;;;;3.38;1.77;;;;;;;;;;5037134;28;20064;-28
2023/01/02 08:19:58;;;;;;;2.92;1.95;;;;;;;;;;5036932;28;20036;-29
2023/01/02 08:22:24;;;;;;;6.55;2.20;;;;;;;;;;5037045;28;20040;-29
2023/01/02 08:24:50;;;;;;;4.25;1.92;;;;;;;;;;5037250;28;20029;-29
2023/01/02 08:27:16;;;;;;;5.05;2.15;;;;;;;;;;5037228;28;20029;-29
2023/01/02 08:29:43;;;;;;;5.78;2.15;;;;;;;;;;5037727;28;20127;-29
2023/01/02 08:32:09;;;;;;;4.00;1.67;;;;;;;;;;5036625;28;20033;-29
2023/01/02 08:34:35;;;;;;;9.77;2.15;;;;;;;;;;5036901;28;20139;-29
2023/01/02 08:37:02;;;;;;;13.32;3.45;;;;;;;;;;5036524;28;20037;-37
2023/01/02 08:39:29;;;;;;;12.68;2.38;;;;;;;;;;5036613;28;20026;-29
2023/01/02 08:41:57;;;;;;;8.32;2.08;;;;;;;;;;5036538;28;20034;-29
2023/01/02 08:44:23;;;;;;;7.32;2.05;;;;;;;;;;5036314;28;20030;-29
2023/01/02 08:46:49;;;;;;;5.95;2.30;;;;;;;;;;5036373;28;20430;-28
2023/01/02 08:49:15;;;;;;;8.57;2.22;;;;;;;;;;5036548;28;20036;-28
2023/01/02 08:51:41;;;;;;;5.72;1.65;;;;;;;;;;5036003;28;20088;-28
2023/01/02 08:54:08;;;;;;;5.72;2.05;;;;;;;;;;5036273;28;20025;-29
2023/01/02 08:56:35;;;;;;;2.60;1.73;;;;;;;;;;5036551;28;20033;-29
2023/01/02 08:59:03;;;;;;;11.10;2.75;;;;;;;;;;5035033;28;20026;-29
2023/01/02 09:01:31;;;;;;;8.93;2.00;;;;;;;;;;5035000;28;20082;-29
2023/01/02 09:03:57;;;;;;;6.82;2.17;;;;;;;;;;5035755;28;20041;-28
2023/01/02 09:06:24;;;;;;;11.02;2.42;;;;;;;;;;5035898;28;20075;-29
2023/01/02 09:08:51;;;;;;;9.80;2.92;;;;;;;;;;5035827;28;20029;-29
2023/01/02 09:11:18;;;;;;;9.82;3.58;;;;;;;;;;5035857;28;20037;-29
2023/01/02 09:13:45;;;;;;;6.82;1.77;;;;;;;;;;5034736;28;20049;-29
2023/01/02 09:16:11;;;;;;;8.20;1.90;;;;;;;;;;5036100;28;20188;-28
2023/01/02 09:18:38;;;;;;;9.02;2.38;;;;;;;;;;5035704;28;20106;-29
2023/01/02 09:21:05;;;;;;;8.90;2.30;;;;;;;;;;5035914;28;20033;-29
2023/01/02 09:23:32;;;;;;;7.97;2.10;;;;;;;;;;5035585;28;20103;-30
2023/01/02 09:25:59;;;;;;;6.15;2.90;;;;;;;;;;5034573;28;20025;-29
2023/01/02 09:28:25;;;;;;;13.25;2.50;;;;;;;;;;5035620;28;20037;-29
2023/01/02 09:30:51;;;;;;;6.57;2.00;;;;;;;;;;5035838;28;20033;-29
2023/01/02 09:33:18;;;;;;;3.80;1.85;;;;;;;;;;5035466;28;20515;-28
2023/01/02 09:35:44;;;;;;;5.75;1.95;;;;;;;;;;5035904;28;20056;-29
2023/01/02 09:38:10;;;;;;;9.07;2.20;;;;;;;;;;5035486;28;20173;-29
2023/01/02 09:40:45;;;;;;;8.25;2.42;;;;;;;;;;5035727;28;20030;-28
2023/01/02 09:43:12;;;;;;;1.85;1.48;;;;;;;;;;5034265;28;20025;-29
2023/01/02 09:45:43;;;;;;;7.32;1.63;;;;;;;;;;5035468;28;20528;-28
2023/01/02 09:48:14;;;;;;;9.90;1.90;;;;;;;;;;5034604;28;20041;-28
2023/01/02 09:50:40;;;;;;;5.20;2.30;;;;;;;;;;5034572;28;20037;-29
2023/01/02 09:53:06;;;;;;;14.35;3.20;;;;;;;;;;5035339;28;20420;-28
2023/01/02 09:55:37;;;;;;;4.72;2.15;;;;;;;;;;5035640;28;20135;-29
2023/01/02 09:58:03;;;;;;;7.07;1.90;;;;;;;;;;5034233;28;20044;-28
2023/01/02 10:00:34;;;;;;;6.85;2.58;;;;;;;;;;5035168;28;20452;-29
2023/01/02 10:03:11;;;;;;;7.70;2.60;;;;;;;;;;5033529;28;20132;-29
2023/01/02 10:05:37;;;;;;;4.15;1.85;;;;;;;;;;5035317;28;20026;-29
2023/01/02 10:08:21;;;;;;;6.22;1.75;;;;;;;;;;5035126;28;20039;-28
2023/01/02 10:10:52;;;;;;;9.20;2.50;;;;;;;;;;5035381;28;20118;-28
2023/01/02 10:13:25;;;;;;;10.15;2.95;;;;;;;;;;5035194;28;20025;-28
2023/01/02 10:15:53;;;;;;;5.63;2.13;;;;;;;;;;5035031;28;20029;-29
2023/01/02 10:18:19;;;;;;;8.85;2.22;;;;;;;;;;5034920;28;20060;-29
2023/01/02 10:20:48;;;;;;;16.35;1.98;;;;;;;;;;5034872;28;20033;-28
2023/01/02 10:23:18;;;;;;;15.15;2.40;;;;;;;;;;5034716;28;20087;-28
2023/01/02 10:25:53;;;;;;;9.13;2.80;;;;;;;;;;5034829;28;20029;-28
2023/01/02 10:28:19;;;;;;;13.95;3.10;;;;;;;;;;5034749;28;20037;-28
2023/01/02 10:30:52;;;;;;;11.88;2.35;;;;;;;;;;5034894;28;20034;-28
2023/01/02 10:33:21;;;;;;;8.18;1.92;;;;;;;;;;5034474;28;20033;-28
2023/01/02 10:35:50;;;;;;;9.88;1.88;;;;;;;;;;5034458;28;20021;-27
2023/01/02 10:38:18;;;;;;;9.95;2.13;;;;;;;;;;5033926;28;20081;-28
2023/01/02 10:40:46;;;;;;;9.55;2.60;;;;;;;;;;5034246;28;20024;-28
2023/01/02 10:43:12;;;;;;;9.98;2.75;;;;;;;;;;5034035;28;20036;-27
2023/01/02 10:45:38;;;;;;;8.65;2.08;;;;;;;;;;5034416;28;20045;-28
2023/01/02 10:48:05;;;;;;;9.82;2.22;;;;;;;;;;5033139;28;20026;-28
2023/01/02 10:50:35;;;;;;;6.97;2.45;;;;;;;;;;5033231;28;20045;-28
2023/01/02 10:53:06;;;;;;;6.63;2.08;;;;;;;;;;5034242;28;20072;-29
2023/01/02 10:55:34;;;;;;;6.53;1.85;;;;;;;;;;5034164;28;20025;-28
2023/01/02 10:58:05;;;;;;;4.97;2.88;;;;;;;;;;5034108;28;20345;-29
2023/01/02 11:00:33;;;;;;;8.07;2.58;;;;;;;;;;5034544;28;20373;-28
2023/01/02 11:03:14;;;;;;;12.50;2.15;;;;;;;;;;5033953;28;20029;-28
2023/01/02 11:05:45;;;;;;;11.45;2.17;;;;;;;;;;5033866;28;20046;-37
2023/01/02 11:08:15;;;;;;;8.25;2.08;;;;;;;;;;5034147;28;20033;-28
2023/01/02 11:10:42;;;;;;;8.05;2.22;;;;;;;;;;5033952;28;20041;-29
2023/01/02 11:13:13;;;;;;;8.07;1.95;;;;;;;;;;5033803;28;20037;-28
2023/01/02 11:15:50;;;;;;;7.25;2.30;;;;;;;;;;5034158;28;20033;-28
2023/01/02 11:18:24;;;;;;;8.43;3.10;;;;;;;;;;5033628;28;20029;-29
2023/01/02 11:20:55;;;;;;;8.40;2.03;;;;;;;;;;5033736;28;20082;-29
2023/01/02 11:23:23;;;;;;;11.15;2.10;;;;;;;;;;5034034;28;20037;-29
2023/01/02 11:25:50;;;;;;;7.32;1.90;;;;;;;;;;5033820;28;20033;-28
2023/01/02 11:28:18;;;;;;;9.40;3.08;;;;;;;;;;5033957;28;20036;-29
2023/01/02 11:30:49;;;;;;;9.50;2.35;;;;;;;;;;5033657;28;20487;-28
2023/01/02 11:33:27;;;;;;;4.55;2.15;;;;;;;;;;5034516;28;20029;-29
2023/01/02 11:35:55;;;;;;;14.02;2.75;;;;;;;;;;5034004;28;20025;-29
2023/01/02 11:38:23;;;;;;;9.25;2.92;;;;;;;;;;5033847;28;20036;-28
2023/01/02 11:40:51;;;;;;;18.13;2.58;;;;;;;;;;5033735;28;20064;-28
2023/01/02 11:46:08;;;;;;;10.38;2.40;;;;;;;;;;5033947;28;20036;-28
2023/01/02 11:48:36;;;;;;;7.57;1.88;;;;;;;;;;5033967;28;20029;-28
2023/01/02 11:51:02;;;;;;;15.60;2.25;;;;;;;;;;5037854;28;20321;-28
2023/01/02 11:53:37;;;;;;;8.90;2.53;;;;;;;;;;5037536;28;20021;-28
2023/01/02 11:56:10;;;;;;;11.43;2.55;;;;;;;;;;5037624;28;20429;-28
2023/01/02 11:58:36;;;;;;;8.57;3.38;;;;;;;;;;5037277;28;20384;-28
2023/01/02 12:01:05;;;;;;;7.80;2.38;;;;;;;;;;5037845;28;20079;-28
2023/01/02 12:03:32;;;;;;;14.65;3.08;;;;;;;;;;5037275;28;20084;-28
2023/01/02 12:06:01;;;;;;;3.47;2.72;;;;;;;;;;5037260;28;20448;-28
2023/01/02 12:08:27;;;;;;;3.28;2.22;;;;;;;;;;5037518;28;20033;-28
2023/01/02 12:11:29;;;;;;;5.30;1.75;;;;;;;;;;5037375;28;20060;-28
2023/01/02 12:14:01;;;;;;;6.50;1.95;;;;;;;;;;4976606;28;20174;-28
2023/01/02 12:16:33;;;;;;;6.00;1.92;;;;;;;;;;5027311;28;20037;-28
2023/01/02 12:19:17;;;;;;;5.95;1.90;;;;;;;;;;5037291;28;20372;-27
2023/01/02 12:21:43;;;;;;;4.10;1.83;;;;;;;;;;5037045;28;20101;-28
2023/01/02 12:24:27;;;;;;;6.68;2.05;;;;;;;;;;5037025;28;20025;-28
2023/01/02 12:27:12;;;;;;;15.77;2.78;;;;;;;;;;5037083;28;20032;-28
2023/01/02 12:29:38;;;;;;;12.65;2.22;;;;;;;;;;5036399;28;20033;-28
2023/01/02 12:32:07;;;;;;;7.28;2.80;;;;;;;;;;5036590;28;20034;-28
2023/01/02 12:34:38;;;;;;;5.28;2.78;;;;;;;;;;5036576;28;20128;-28
2023/01/02 12:37:04;;;;;;;7.93;2.80;;;;;;;;;;5035583;28;20038;-28
2023/01/02 12:39:53;;;;;;;12.02;3.05;;;;;;;;;;5036550;28;20032;-28
2023/01/02 12:42:25;;;;;;;11.95;1.80;;;;;;;;;;5037026;28;20096;-28
2023/01/02 12:44:58;;;;;;;14.48;2.55;;;;;;;;;;5036543;28;20298;-28
2023/01/02 12:47:27;;;;;;;16.88;3.42;;;;;;;;;;5036352;28;20044;-28
2023/01/02 12:50:14;;;;;;;18.52;3.60;;;;;;;;;;5036618;28;20025;-28
2023/01/02 12:52:43;;;;;;;13.75;2.80;;;;;;;;;;5006165;28;20034;-28
2023/01/02 12:55:28;;;;;;;8.05;2.47;;;;;;;;;;5035358;28;20429;-28
2023/01/02 12:57:58;;;;;;;21.30;3.42;;;;;;;;;;5036349;28;20034;-28
2023/01/02 13:00:42;;;;;;;9.52;2.88;;;;;;;;;;5036056;28;20109;-28
2023/01/02 13:03:23;;;;;;;15.15;5.05;;;;;;;;;;5036114;28;20075;-28
2023/01/02 13:05:49;;;;;;;;;;;;;;;;;;5036506;28;20052;-28
2023/01/02 13:08:25;;;;;;;10.27;2.70;;;;;;;;;;5036266;28;19909;-28
2023/01/02 13:10:51;;;;;;;10.00;3.38;;;;;;;;;;5036310;28;20108;-27
2023/01/02 13:13:17;;;;;;;6.82;2.47;;;;;;;;;;5036011;28;20025;-28
2023/01/02 13:15:47;;;;;;;4.07;2.20;;;;;;;;;;5036330;28;20448;-28
2023/01/02 13:18:19;;;;;;;26.15;3.78;;;;;;;;;;5035999;28;20040;-28
2023/01/02 13:20:51;;;;;;;11.02;2.78;;;;;;;;;;5036177;28;20411;-28
2023/01/02 13:23:42;;;;;;;19.38;2.70;;;;;;;;;;5034842;28;20461;-28
2023/01/02 13:26:08;;;;;;;4.78;1.95;;;;;;;;;;5035972;28;20022;-28
2023/01/02 13:28:51;;;;;;;11.93;2.90;;;;;;;;;;5035638;28;20510;-29
2023/01/02 13:31:18;;;;;;;10.48;2.30;;;;;;;;;;5036054;28;20030;-28
2023/01/02 13:33:45;;;;;;;18.65;3.47;;;;;;;;;;5035657;28;20026;-28
2023/01/02 13:36:14;;;;;;;10.02;2.22;;;;;;;;;;5036052;28;20045;-28
2023/01/02 13:38:41;;;;;;;7.35;2.60;;;;;;;;;;5035598;28;20025;-29
2023/01/02 13:41:07;;;;;;;5.90;1.77;;;;;;;;;;5035750;28;20104;-28
2023/01/02 13:43:34;;;;;;;10.40;1.83;;;;;;;;;;5035557;28;20088;-27
2023/01/02 13:46:01;;;;;;;12.32;2.65;;;;;;;;;;5035540;28;20060;-29
2023/01/02 13:48:40;;;;;;;10.20;2.38;;;;;;;;;;5034543;28;20041;-28
2023/01/02 13:51:16;;;;;;;12.43;3.75;;;;;;;;;;5035561;28;20056;-28
2023/01/02 13:53:46;;;;;;;9.65;2.83;;;;;;;;;;5035430;28;20052;-28
2023/01/02 13:56:38;;;;;;;5.68;2.47;;;;;;;;;;5035629;28;20037;-28
2023/01/02 13:59:23;;;;;;;23.38;4.07;;;;;;;;;;5012440;28;20439;-27
2023/01/02 14:02:02;;;;;;;12.18;2.88;;;;;;;;;;5035523;28;20048;-27
2023/01/02 14:04:33;;;;;;;13.18;3.00;;;;;;;;;;5035194;28;20056;-28
2023/01/02 14:07:18;;;;;;;20.25;4.00;;;;;;;;;;5035593;28;20068;-28
2023/01/02 14:10:02;;;;;;;8.55;2.60;;;;;;;;;;5034014;28;20448;-28
2023/01/02 14:12:29;;;;;;;18.23;5.90;;;;;;;;;;5034526;28;20397;-28
2023/01/02 14:14:55;;;;;;;17.52;4.03;;;;;;;;;;5034906;28;20105;-28
2023/01/02 14:17:27;;;;;;;15.82;3.03;;;;;;;;;;5035277;28;20120;-28
2023/01/02 14:20:12;;;;;;;18.02;3.15;;;;;;;;;;5034858;28;20079;-29
2023/01/02 14:22:45;;;;;;;16.30;2.83;;;;;;;;;;5035018;28;20028;-28
2023/01/02 14:25:11;;;;;;;16.98;3.35;;;;;;;;;;5035343;28;20389;-28
2023/01/02 14:27:37;;;;;;;19.95;3.25;;;;;;;;;;5035142;28;20392;-28
2023/01/02 14:30:06;;;;;;;6.22;2.05;;;;;;;;;;5034831;28;20056;-28
2023/01/02 14:32:35;;;;;;;11.82;2.58;;;;;;;;;;5034619;28;20021;-28
2023/01/02 14:35:04;;;;;;;11.55;2.58;;;;;;;;;;5035028;28;20395;-28
2023/01/02 14:37:42;;;;;;;10.90;2.72;;;;;;;;;;5034318;28;20053;-28
2023/01/02 14:40:23;;;;;;;11.45;3.40;;;;;;;;;;5034429;28;20025;-28
2023/01/02 14:45:43;;;;;;;21.80;3.08;;;;;;;;;;5034931;28;20134;-28
2023/01/02 14:48:14;;;;;;;20.40;4.03;;;;;;;;;;5034412;28;20075;-27
2023/01/02 14:50:41;;;;;;;20.95;2.90;;;;;;;;;;5034782;28;20029;-27
2023/01/02 14:53:26;;;;;;;17.00;2.88;;;;;;;;;;5034634;28;20025;-28
2023/01/02 14:55:57;;;;;;;10.00;2.75;;;;;;;;;;5034516;28;20144;-28
2023/01/02 14:58:36;;;;;;;9.07;2.85;;;;;;;;;;5034666;28;20121;-28
2023/01/02 15:01:04;;;;;;;3.75;2.30;;;;;;;;;;5034594;28;20410;-28
2023/01/02 15:03:42;;;;;;;10.43;2.20;;;;;;;;;;5016696;28;20334;-28
2023/01/02 15:06:13;;;;;;;7.45;2.72;;;;;;;;;;5034453;28;20102;-28